Time;durP1;ratioP1;P1;durP2;ratioP2;P2;SDS_P1;SDS_P2;PMS_P1;PMS_P2;Temp;Humidity;BMP_temperature;BMP_pressure;BME280_temperature;BME280_humidity;BME280_pressure;Samples;Min_cycle;Max_cycle;Signal;HPM_P1;HPM_P2
2022/08/01 00:08:01;;;;;;;7.3;10.8;;;;;;;15.9;100;98340;;;;
2022/08/01 00:19:01;;;;;;;7.3;10.8;;;;;;;15.8;100;98330;;;;
2022/08/01 00:29:01;;;;;;;6.3;8.5;;;;;;;15.6;100;98340;;;;
2022/08/01 00:39:01;;;;;;;6.3;8.5;;;;;;;15.6;100;98340;;;;
2022/08/01 00:50:01;;;;;;;6.3;8.5;;;;;;;15.4;100;98330;;;;
2022/08/01 01:00:01;;;;;;;6.9;10.3;;;;;;;15.3;100;98330;;;;
2022/08/01 01:11:01;;;;;;;6.9;10.3;;;;;;;15.4;100;98340;;;;
2022/08/01 01:21:01;;;;;;;6.9;10.3;;;;;;;15.4;100;98340;;;;
2022/08/01 01:32:01;;;;;;;6.1;8.8;;;;;;;15.3;100;98340;;;;
2022/08/01 01:42:01;;;;;;;6.1;8.8;;;;;;;15.3;100;98350;;;;
2022/08/01 01:53:01;;;;;;;5.9;8.3;;;;;;;15.3;100;98350;;;;
2022/08/01 02:03:01;;;;;;;5.9;8.3;;;;;;;15.1;100;98350;;;;
2022/08/01 02:13:01;;;;;;;5.9;8.3;;;;;;;15;100;98350;;;;
2022/08/01 02:24:01;;;;;;;6.7;9.8;;;;;;;14.8;100;98340;;;;
2022/08/01 02:35:01;;;;;;;6.7;9.8;;;;;;;14.5;100;98350;;;;
2022/08/01 02:45:01;;;;;;;6.7;9.8;;;;;;;14.4;100;98350;;;;
2022/08/01 02:56:01;;;;;;;6.6;11.9;;;;;;;14.2;100;98360;;;;
2022/08/01 03:06:01;;;;;;;6.6;11.9;;;;;;;14.1;100;98360;;;;
2022/08/01 03:17:01;;;;;;;6.6;11.9;;;;;;;13.9;100;98350;;;;
2022/08/01 03:28:01;;;;;;;7.6;14.1;;;;;;;13.8;100;98350;;;;
2022/08/01 03:38:01;;;;;;;7.6;14.1;;;;;;;13.7;100;98360;;;;
2022/08/01 03:48:01;;;;;;;7.6;14.1;;;;;;;13.6;100;98360;;;;
2022/08/01 03:59:01;;;;;;;7.6;11.8;;;;;;;13.8;100;98380;;;;
2022/08/01 04:09:01;;;;;;;7.6;11.8;;;;;;;13.9;100;98380;;;;
2022/08/01 04:20:01;;;;;;;7.6;11.8;;;;;;;14.1;100;98390;;;;
2022/08/01 04:30:01;;;;;;;11.9;14.5;;;;;;;14.2;100;98390;;;;
2022/08/01 04:41:02;;;;;;;11.9;14.5;;;;;;;14.2;100;98390;;;;
2022/08/01 04:52:01;;;;;;;11.6;14.9;;;;;;;14.4;100;98390;;;;
2022/08/01 05:03:01;;;;;;;11.6;14.9;;;;;;;14.8;100;98390;;;;
2022/08/01 05:14:01;;;;;;;11.6;14.9;;;;;;;15.2;100;98390;;;;
2022/08/01 05:24:02;;;;;;;9.4;14.9;;;;;;;15.2;100;98390;;;;
2022/08/01 05:35:01;;;;;;;9.4;14.9;;;;;;;15.6;100;98390;;;;
2022/08/01 05:45:01;;;;;;;9.4;14.9;;;;;;;15.9;100;98400;;;;
2022/08/01 05:56:01;;;;;;;10.3;13.6;;;;;;;16.1;100;98400;;;;
2022/08/01 06:06:01;;;;;;;10.3;13.6;;;;;;;16.5;100;98400;;;;
2022/08/01 06:17:01;;;;;;;10.3;13.6;;;;;;;16.9;100;98400;;;;
2022/08/01 06:28:01;;;;;;;9.2;12.2;;;;;;;17.4;100;98410;;;;
2022/08/01 06:38:01;;;;;;;9.2;12.2;;;;;;;17.8;100;98410;;;;
2022/08/01 06:48:01;;;;;;;9.2;12.2;;;;;;;18;100;98430;;;;
2022/08/01 06:59:01;;;;;;;9;13.1;;;;;;;18.4;100;98420;;;;
2022/08/01 07:09:03;;;;;;;9;13.1;;;;;;;18.7;100;98430;;;;
2022/08/01 07:20:01;;;;;;;9;13.1;;;;;;;19.2;100;98430;;;;
2022/08/01 07:31:01;;;;;;;6.4;10.7;;;;;;;19.5;100;98440;;;;
2022/08/01 07:41:02;;;;;;;6.4;10.7;;;;;;;20.1;100;98430;;;;
2022/08/01 07:52:01;;;;;;;5;9.2;;;;;;;20.3;100;98430;;;;
2022/08/01 08:03:01;;;;;;;5;9.2;;;;;;;20.5;100;98430;;;;
2022/08/01 08:14:01;;;;;;;5;9.2;;;;;;;21.1;100;98420;;;;
2022/08/01 08:24:32;;;;;;;3.5;7;;;;;;;21.4;100;98420;;;;
2022/08/01 08:35:02;;;;;;;3.5;7;;;;;;;21.6;100;98420;;;;
2022/08/01 08:45:01;;;;;;;3.5;7;;;;;;;22;100;98420;;;;
2022/08/01 08:56:01;;;;;;;2.6;5.5;;;;;;;22.3;100;98420;;;;
2022/08/01 09:07:01;;;;;;;2.6;5.5;;;;;;;22.7;100;98420;;;;
2022/08/01 09:17:01;;;;;;;2.6;5.5;;;;;;;22.8;100;98420;;;;
2022/08/01 09:27:01;;;;;;;2.1;5.1;;;;;;;23.2;100;98430;;;;
2022/08/01 09:37:01;;;;;;;2.1;5.1;;;;;;;23.5;100;98430;;;;
2022/08/01 09:48:01;;;;;;;2.1;5.1;;;;;;;23.7;100;98430;;;;
2022/08/01 09:58:01;;;;;;;1.8;4;;;;;;;23.9;100;98430;;;;
2022/08/01 10:14:50;;;;;;;1.8;4;;;;;;;25.2;97.2;98420;;;;
2022/08/01 10:24:49;;;;;;;1.8;5.2;;;;;;;25.3;97.1;98420;;;;
2022/08/01 10:34:49;;;;;;;1.8;5.2;;;;;;;25.8;93.4;98420;;;;
2022/08/01 10:45:49;;;;;;;1.8;5.2;;;;;;;26.2;90.8;98420;;;;
2022/08/01 10:55:49;;;;;;;1.7;4.1;;;;;;;26.8;93.2;98410;;;;
2022/08/01 11:05:49;;;;;;;1.7;4.1;;;;;;;26.8;91.5;98410;;;;
2022/08/01 11:15:49;;;;;;;1.7;4.1;;;;;;;27.7;89.5;98420;;;;
2022/08/01 11:25:50;;;;;;;1.9;5.2;;;;;;;27.2;89.1;98410;;;;
2022/08/01 11:36:49;;;;;;;1.9;5.2;;;;;;;27.5;84.9;98410;;;;
2022/08/01 11:47:49;;;;;;;1.9;5.2;;;;;;;27.2;88.8;98410;;;;
2022/08/01 11:58:50;;;;;;;1.6;4.6;;;;;;;26.9;85.6;98410;;;;
2022/08/01 12:09:49;;;;;;;1.6;4.6;;;;;;;26.5;84.7;98410;;;;
2022/08/01 12:19:49;;;;;;;1.6;4.6;;;;;;;26.4;89.1;98410;;;;
2022/08/01 12:29:49;;;;;;;1.8;4.3;;;;;;;26;96.6;98410;;;;
2022/08/01 12:40:49;;;;;;;1.8;4.3;;;;;;;25.6;100;98410;;;;
2022/08/01 12:51:49;;;;;;;1.8;4.3;;;;;;;26.1;95;98400;;;;
2022/08/01 13:01:49;;;;;;;1.7;5.4;;;;;;;26.2;97.9;98400;;;;
2022/08/01 13:12:49;;;;;;;1.7;5.4;;;;;;;26.1;95.2;98400;;;;
2022/08/01 13:22:50;;;;;;;2.2;4.7;;;;;;;25.8;97.2;98390;;;;
2022/08/01 13:32:49;;;;;;;2.2;4.7;;;;;;;26.5;100;98380;;;;
2022/08/01 13:43:49;;;;;;;2.2;4.7;;;;;;;26.7;97.3;98380;;;;
2022/08/01 13:54:49;;;;;;;2.9;5.3;;;;;;;27.2;96;98380;;;;
2022/08/01 14:04:49;;;;;;;2.9;5.3;;;;;;;27.3;95.4;98390;;;;
2022/08/01 14:14:50;;;;;;;2.9;5.3;;;;;;;27.5;92;98390;;;;
2022/08/01 14:24:49;;;;;;;2.6;5.3;;;;;;;27.8;89.3;98400;;;;
2022/08/01 14:35:49;;;;;;;2.6;5.3;;;;;;;28.5;92.9;98400;;;;
2022/08/01 14:45:50;;;;;;;2.6;5.3;;;;;;;27.4;88.2;98400;;;;
2022/08/01 14:55:49;;;;;;;2.8;5.5;;;;;;;28.4;92.5;98400;;;;
2022/08/01 15:06:49;;;;;;;2.8;5.5;;;;;;;28.3;90.7;98400;;;;
2022/08/01 15:17:52;;;;;;;2.8;5.5;;;;;;;29;90.7;98400;;;;
2022/08/01 15:27:49;;;;;;;3.9;7.5;;;;;;;32.2;72.9;98410;;;;
2022/08/01 15:38:49;;;;;;;3.9;7.5;;;;;;;33.9;63.9;98420;;;;
2022/08/01 15:49:49;;;;;;;3.9;7.5;;;;;;;31.2;67.9;98400;;;;
2022/08/01 15:59:49;;;;;;;2.7;5.7;;;;;;;31.8;69.7;98400;;;;
2022/08/01 16:10:49;;;;;;;2.7;5.7;;;;;;;29.8;73.8;98400;;;;
2022/08/01 16:20:50;;;;;;;2.7;5.7;;;;;;;28.4;80.7;98390;;;;
2022/08/01 16:31:50;;;;;;;2.9;5;;;;;;;27.4;84.6;98380;;;;
2022/08/01 16:41:49;;;;;;;2.9;5;;;;;;;26.9;87.2;98370;;;;
2022/08/01 16:52:49;;;;;;;3.3;5.7;;;;;;;26.3;91.3;98390;;;;
2022/08/01 17:02:49;;;;;;;3.3;5.7;;;;;;;25.9;94;98390;;;;
2022/08/01 17:13:49;;;;;;;3.3;5.7;;;;;;;24.2;100;98420;;;;
2022/08/01 17:23:49;;;;;;;3.7;6.3;;;;;;;23.2;100;98430;;;;
2022/08/01 17:33:49;;;;;;;3.7;6.3;;;;;;;22;100;98400;;;;
2022/08/01 17:44:49;;;;;;;3.7;6.3;;;;;;;21.5;100;98410;;;;
2022/08/01 17:54:49;;;;;;;4.7;8;;;;;;;21.3;100;98420;;;;
2022/08/01 18:04:51;;;;;;;4.7;8;;;;;;;21.1;100;98420;;;;
2022/08/01 18:15:49;;;;;;;4.7;8;;;;;;;21.1;100;98420;;;;
2022/08/01 18:25:50;;;;;;;12.3;19.7;;;;;;;20.9;100;98420;;;;
2022/08/01 18:35:50;;;;;;;12.3;19.7;;;;;;;20.7;100;98430;;;;
2022/08/01 18:45:50;;;;;;;12.3;19.7;;;;;;;20.5;100;98440;;;;
2022/08/01 18:56:49;;;;;;;5.5;9.7;;;;;;;20.3;100;98450;;;;
2022/08/01 19:07:50;;;;;;;5.5;9.7;;;;;;;20;100;98470;;;;
2022/08/01 19:17:50;;;;;;;5.5;9.7;;;;;;;19.7;100;98470;;;;
2022/08/01 19:28:49;;;;;;;6.5;9.2;;;;;;;19.7;100;98470;;;;
2022/08/01 19:38:50;;;;;;;6.5;9.2;;;;;;;19.7;100;98490;;;;
2022/08/01 19:48:50;;;;;;;6.5;9.2;;;;;;;19.6;100;98490;;;;
2022/08/01 19:59:50;;;;;;;7.1;10.5;;;;;;;19.5;100;98490;;;;
2022/08/01 20:09:49;;;;;;;7.1;10.5;;;;;;;19.5;100;98490;;;;
2022/08/01 20:19:50;;;;;;;7.1;10.5;;;;;;;19.5;100;98500;;;;
2022/08/01 20:30:50;;;;;;;7.8;10.3;;;;;;;19.5;100;98500;;;;
2022/08/01 20:40:50;;;;;;;7.8;10.3;;;;;;;19.4;100;98510;;;;
2022/08/01 20:51:51;;;;;;;7.8;10.3;;;;;;;19.1;100;98510;;;;
2022/08/01 21:02:50;;;;;;;7.4;10.1;;;;;;;18.8;100;98500;;;;
2022/08/01 21:13:50;;;;;;;7.4;10.1;;;;;;;18.6;100;98520;;;;
2022/08/01 21:24:50;;;;;;;8.1;10.7;;;;;;;18.7;100;98530;;;;
2022/08/01 21:34:50;;;;;;;8.1;10.7;;;;;;;18.8;100;98530;;;;
2022/08/01 21:44:50;;;;;;;8.1;10.7;;;;;;;18.8;100;98530;;;;
2022/08/01 21:55:50;;;;;;;7.2;9.5;;;;;;;18.6;100;98530;;;;
2022/08/01 22:05:50;;;;;;;7.2;9.5;;;;;;;18.6;100;98540;;;;
2022/08/01 22:15:50;;;;;;;7.2;9.5;;;;;;;18.5;100;98540;;;;
2022/08/01 22:26:51;;;;;;;9;11.8;;;;;;;18.4;100;98540;;;;
2022/08/01 22:37:50;;;;;;;9;11.8;;;;;;;18.4;100;98550;;;;
2022/08/01 22:47:50;;;;;;;9;11.8;;;;;;;18.5;100;98550;;;;
2022/08/01 22:57:50;;;;;;;10.5;15.6;;;;;;;18.6;100;98540;;;;
2022/08/01 23:08:50;;;;;;;10.5;15.6;;;;;;;18.5;100;98540;;;;
2022/08/01 23:19:50;;;;;;;10.5;15.6;;;;;;;18.4;100;98530;;;;
2022/08/01 23:29:50;;;;;;;9.6;13.3;;;;;;;18.2;100;98530;;;;
2022/08/01 23:39:50;;;;;;;9.6;13.3;;;;;;;18.2;100;98540;;;;
2022/08/01 23:50:50;;;;;;;9.6;13.3;;;;;;;18.1;100;98540;;;;
